Time;durP1;ratioP1;P1;durP2;ratioP2;P2;SDS_P1;SDS_P2;PMS_P1;PMS_P2;Temp;Humidity;BMP_temperature;BMP_pressure;BME280_temperature;BME280_humidity;BME280_pressure;Samples;Min_cycle;Max_cycle;Signal;HPM_P1;HPM_P2
2022/07/21 00:01:57;;;;;;;3.75;2.42;;;20.00;64.20;22.10;94356.00;;;;10457907;28;45318;-61
2022/07/21 00:07:17;;;;;;;4.00;2.80;;;20.00;64.20;22.10;94364.00;;;;10482489;28;45137;-61
2022/07/21 00:12:40;;;;;;;4.47;2.80;;;20.00;65.50;22.10;94381.00;;;;10469378;28;45793;-61
2022/07/21 00:18:01;;;;;;;4.00;2.67;;;20.00;65.90;22.10;94369.00;;;;10468500;28;45185;-61
2022/07/21 00:23:22;;;;;;;3.08;2.60;;;20.00;65.90;22.10;94370.00;;;;10469469;28;45469;-61
2022/07/21 00:28:44;;;;;;;4.35;2.83;;;20.00;65.70;22.10;94396.00;;;;10467926;28;45224;-61
2022/07/21 00:34:04;;;;;;;3.33;2.67;;;20.00;65.50;22.10;94386.00;;;;10468531;28;45304;-61
2022/07/21 00:39:25;;;;;;;5.07;3.40;;;19.90;65.30;22.10;94380.00;;;;10468485;28;45199;-61
2022/07/21 00:44:47;;;;;;;4.63;3.45;;;19.90;65.40;22.10;94392.00;;;;10468742;28;45142;-61
2022/07/21 00:50:11;;;;;;;5.72;3.95;;;19.90;65.60;22.00;94399.00;;;;10468206;28;45112;-61
2022/07/21 00:55:32;;;;;;;5.35;3.60;;;19.90;65.40;22.00;94415.00;;;;10472621;28;45223;-61
2022/07/21 01:00:54;;;;;;;5.82;3.58;;;19.90;65.10;22.00;94398.00;;;;10470788;28;45244;-62
2022/07/21 01:06:15;;;;;;;5.05;3.83;;;19.90;65.00;22.00;94408.00;;;;10488266;28;45090;-60
2022/07/21 01:11:36;;;;;;;5.22;4.00;;;19.90;64.80;22.00;94402.00;;;;10474926;28;45168;-62
2022/07/21 01:16:59;;;;;;;6.45;4.43;;;19.90;65.20;22.00;94414.00;;;;10474894;28;45191;-61
2022/07/21 01:22:21;;;;;;;7.50;4.63;;;19.90;65.50;22.00;94414.00;;;;10474506;28;45191;-61
2022/07/21 01:27:42;;;;;;;7.20;4.70;;;19.90;65.90;22.00;94391.00;;;;10473285;28;45196;-61
2022/07/21 01:33:02;;;;;;;7.53;4.82;;;19.90;65.80;22.00;94386.00;;;;10474648;28;45122;-61
2022/07/21 01:44:03;;;;;;;8.35;4.53;;;19.80;65.70;21.90;94401.00;;;;10446864;28;45426;-62
2022/07/21 01:49:24;;;;;;;7.43;4.88;;;19.80;65.50;21.90;94406.00;;;;10473679;28;45449;-61
2022/07/21 01:54:46;;;;;;;6.90;4.38;;;19.80;65.30;21.90;94405.00;;;;10473525;28;45254;-61
2022/07/21 02:00:09;;;;;;;5.78;4.18;;;19.80;64.90;21.90;94391.00;;;;10473357;28;45252;-61
2022/07/21 02:05:30;;;;;;;7.22;4.60;;;19.80;65.00;21.90;94398.00;;;;10487836;28;45479;-61
2022/07/21 02:10:52;;;;;;;6.43;4.43;;;19.80;64.70;21.90;94395.00;;;;10479048;28;45176;-61
2022/07/21 02:16:13;;;;;;;6.25;4.43;;;19.80;64.60;21.90;94386.00;;;;10472946;28;45273;-61
2022/07/21 02:21:33;;;;;;;5.43;4.35;;;19.80;64.30;21.90;94383.00;;;;10472997;28;45196;-62
2022/07/21 02:26:55;;;;;;;6.20;4.32;;;19.80;64.10;21.90;94380.00;;;;10471978;28;45302;-61
2022/07/21 02:32:16;;;;;;;6.65;4.28;;;19.80;64.00;21.90;94385.00;;;;10471545;28;45125;-61
2022/07/21 02:37:38;;;;;;;6.60;4.40;;;19.80;63.90;21.90;94376.00;;;;10471775;28;45206;-62
2022/07/21 02:43:00;;;;;;;5.78;4.28;;;19.80;63.90;21.90;94380.00;;;;10472453;28;45487;-61
2022/07/21 02:48:21;;;;;;;5.28;4.45;;;19.80;63.90;21.90;94393.00;;;;10471751;28;45329;-61
2022/07/21 02:53:41;;;;;;;6.35;4.30;;;19.80;63.90;21.90;94386.00;;;;10470884;28;45335;-61
2022/07/21 02:59:04;;;;;;;6.03;4.40;;;19.80;63.70;21.90;94385.00;;;;10471370;28;45166;-61
2022/07/21 03:04:24;;;;;;;7.13;4.75;;;19.80;63.50;21.90;94372.00;;;;10486401;28;45288;-61
2022/07/21 03:09:45;;;;;;;6.50;4.50;;;19.80;63.60;21.90;94372.00;;;;10485331;28;45295;-61
2022/07/21 03:15:09;;;;;;;6.10;4.35;;;19.80;63.60;21.90;94373.00;;;;10470236;28;45148;-61
2022/07/21 03:20:32;;;;;;;7.03;4.32;;;19.80;63.50;21.90;94384.00;;;;10470711;28;45116;-62
2022/07/21 03:25:53;;;;;;;5.97;4.13;;;19.80;63.10;21.90;94381.00;;;;10470747;28;45329;-61
2022/07/21 03:31:15;;;;;;;5.20;4.05;;;19.80;63.50;21.90;94392.00;;;;10469517;28;45161;-61
2022/07/21 03:36:36;;;;;;;5.78;4.30;;;19.80;63.20;22.00;94387.00;;;;10469741;28;45116;-61
2022/07/21 03:41:56;;;;;;;6.68;4.07;;;19.80;63.00;21.90;94393.00;;;;10469845;28;45200;-61
2022/07/21 03:47:18;;;;;;;7.75;4.55;;;19.80;62.80;22.00;94400.00;;;;10470558;28;45550;-62
2022/07/21 03:52:40;;;;;;;7.28;4.65;;;19.80;62.50;21.90;94383.00;;;;10470775;28;45315;-61
2022/07/21 03:58:04;;;;;;;6.03;4.50;;;19.80;63.10;21.90;94397.00;;;;10468729;28;45186;-62
2022/07/21 04:03:26;;;;;;;6.35;4.25;;;19.80;62.90;22.00;94393.00;;;;10472362;28;45212;-61
2022/07/21 04:08:47;;;;;;;6.63;4.35;;;19.80;62.60;22.00;94395.00;;;;10490713;28;45441;-61
2022/07/21 04:14:07;;;;;;;6.25;4.25;;;19.90;62.20;22.00;94398.00;;;;10469188;28;45329;-61
2022/07/21 04:19:29;;;;;;;6.10;4.35;;;19.90;62.70;21.90;94399.00;;;;10469753;28;45403;-61
2022/07/21 04:24:50;;;;;;;6.53;4.65;;;19.80;62.70;21.90;94408.00;;;;10468624;28;45140;-62
2022/07/21 04:30:14;;;;;;;6.00;4.40;;;19.80;62.90;22.00;94429.00;;;;10474289;28;45387;-61
2022/07/21 04:35:36;;;;;;;7.25;4.38;;;19.80;62.30;22.00;94428.00;;;;10476621;28;45523;-61
2022/07/21 04:40:56;;;;;;;5.32;4.18;;;19.80;62.10;22.00;94435.00;;;;10464256;28;45072;-61
2022/07/21 04:46:16;;;;;;;5.95;4.53;;;19.90;62.10;21.90;94437.00;;;;10475741;28;45314;-61
2022/07/21 04:51:39;;;;;;;6.55;4.43;;;19.80;62.10;21.90;94442.00;;;;10476434;28;45144;-61
2022/07/21 04:57:02;;;;;;;6.30;4.35;;;19.80;62.00;21.90;94447.00;;;;10475802;28;45306;-61
2022/07/21 05:02:23;;;;;;;6.35;4.50;;;19.80;62.00;21.90;94438.00;;;;10475351;28;45381;-61
2022/07/21 05:07:45;;;;;;;8.57;4.40;;;19.80;61.90;21.90;94437.00;;;;10490596;28;45388;-60
2022/07/21 05:13:05;;;;;;;5.75;4.20;;;19.80;61.90;21.80;94428.00;;;;10475124;28;45264;-61
2022/07/21 05:18:26;;;;;;;5.90;4.10;;;19.70;61.90;21.80;94437.00;;;;10474814;28;45213;-60
2022/07/21 05:23:48;;;;;;;7.40;4.30;;;19.80;62.10;21.90;94442.00;;;;10479944;28;45239;-62
2022/07/21 05:29:09;;;;;;;5.50;4.07;;;19.80;62.80;21.90;94450.00;;;;10473722;28;45231;-62
2022/07/21 05:34:30;;;;;;;6.25;4.30;;;19.80;61.90;21.80;94447.00;;;;10473918;28;45279;-61
2022/07/21 05:39:52;;;;;;;6.10;4.00;;;19.70;62.00;21.80;94446.00;;;;10466377;28;45241;-62
2022/07/21 05:45:13;;;;;;;6.30;4.35;;;19.70;62.00;21.80;94439.00;;;;10474540;28;45365;-62
2022/07/21 05:50:34;;;;;;;5.82;4.07;;;19.70;62.10;21.80;94449.00;;;;10475052;28;45292;-60
2022/07/21 05:55:56;;;;;;;7.05;4.05;;;19.70;62.30;21.80;94449.00;;;;10471019;28;45176;-60
2022/07/21 06:01:17;;;;;;;5.80;3.88;;;19.70;62.10;21.80;94452.00;;;;10473334;28;45157;-61
2022/07/21 06:06:37;;;;;;;6.47;4.10;;;19.70;62.10;21.80;94464.00;;;;10488912;28;45172;-60
2022/07/21 06:11:59;;;;;;;5.45;3.80;;;19.70;62.10;21.80;94460.00;;;;10474266;28;45336;-60
2022/07/21 06:17:20;;;;;;;4.47;3.30;;;19.70;61.90;21.80;94468.00;;;;10472033;28;45294;-59
2022/07/21 06:22:40;;;;;;;5.32;3.58;;;19.70;62.10;21.80;94490.00;;;;10472723;28;45249;-60
2022/07/21 06:28:03;;;;;;;5.53;3.85;;;19.70;62.00;21.80;94479.00;;;;10472359;28;45217;-60
2022/07/21 06:33:23;;;;;;;4.85;3.50;;;19.70;62.10;21.80;94477.00;;;;10472060;28;45274;-60
2022/07/21 06:38:45;;;;;;;5.13;3.90;;;19.70;62.00;21.80;94493.00;;;;10471827;28;45562;-61
2022/07/21 06:44:07;;;;;;;4.03;3.38;;;19.70;62.00;21.80;94487.00;;;;10471113;28;45173;-61
2022/07/21 06:49:28;;;;;;;6.95;3.78;;;19.70;62.10;21.80;94499.00;;;;10470661;28;45362;-61
2022/07/21 06:54:48;;;;;;;5.97;3.78;;;19.70;62.00;21.80;94494.00;;;;10469866;28;45294;-60
2022/07/21 07:00:12;;;;;;;5.78;3.45;;;19.70;62.10;21.80;94503.00;;;;10472035;28;45061;-60
2022/07/21 07:05:33;;;;;;;5.22;3.53;;;19.70;62.00;21.80;94505.00;;;;10494125;28;45119;-60
2022/07/21 07:10:53;;;;;;;3.92;3.17;;;19.70;61.80;21.80;94504.00;;;;10471486;28;45228;-61
2022/07/21 07:16:15;;;;;;;4.60;3.40;;;19.70;61.60;21.80;94511.00;;;;10470451;28;45283;-60
2022/07/21 07:21:35;;;;;;;4.68;3.35;;;19.70;61.60;21.80;94508.00;;;;10470470;28;45358;-61
2022/07/21 07:26:56;;;;;;;6.45;3.55;;;19.70;61.60;21.80;94508.00;;;;10470788;28;45191;-60
2022/07/21 07:32:18;;;;;;;4.75;3.40;;;19.70;61.70;21.80;94507.00;;;;10471373;28;45242;-61
2022/07/21 07:37:41;;;;;;;4.90;3.20;;;19.70;61.40;21.80;94518.00;;;;10470945;28;45432;-61
2022/07/21 07:43:01;;;;;;;5.53;2.90;;;19.70;61.40;21.80;94509.00;;;;10469767;28;45207;-60
2022/07/21 07:48:23;;;;;;;4.85;3.28;;;19.70;61.40;21.80;94520.00;;;;10469915;28;45218;-60
2022/07/21 07:53:44;;;;;;;5.03;3.30;;;19.70;61.30;21.80;94508.00;;;;10468713;28;45246;-61
2022/07/21 07:59:04;;;;;;;4.63;3.25;;;19.70;61.50;21.80;94503.00;;;;10460888;28;45234;-61
2022/07/21 08:04:26;;;;;;;4.53;3.17;;;19.70;61.40;21.80;94506.00;;;;10472192;28;45150;-60
2022/07/21 08:09:47;;;;;;;5.25;3.15;;;19.70;61.20;21.80;94506.00;;;;10476776;28;45464;-61
2022/07/21 08:15:09;;;;;;;4.30;2.90;;;19.70;61.20;21.80;94509.00;;;;10468483;28;45174;-60
2022/07/21 08:20:31;;;;;;;4.55;3.20;;;19.70;61.20;21.80;94509.00;;;;10469155;28;45228;-61
2022/07/21 08:25:52;;;;;;;4.55;3.30;;;19.70;61.20;21.80;94507.00;;;;10468066;28;45547;-60
2022/07/21 08:31:13;;;;;;;4.50;2.90;;;19.70;61.10;21.80;94500.00;;;;10468881;28;45208;-60
2022/07/21 08:36:35;;;;;;;3.20;2.55;;;19.70;60.80;21.80;94492.00;;;;10467501;28;45230;-60
2022/07/21 08:41:55;;;;;;;3.85;2.72;;;19.70;60.70;21.90;94506.00;;;;10468964;28;45260;-64
2022/07/21 08:47:16;;;;;;;4.10;2.70;;;19.70;60.40;21.90;94494.00;;;;10469202;28;45325;-64
2022/07/21 08:52:38;;;;;;;3.95;2.58;;;19.70;60.10;21.90;94518.00;;;;10468900;28;45266;-65
2022/07/21 08:57:59;;;;;;;4.65;2.67;;;19.70;60.00;22.00;94509.00;;;;10467394;28;45212;-64
2022/07/21 09:03:22;;;;;;;4.25;2.50;;;19.80;59.80;22.00;94503.00;;;;10467751;28;45163;-65
2022/07/21 09:08:47;;;;;;;3.47;2.47;;;19.80;59.50;22.00;94506.00;;;;10478646;28;45533;-61
2022/07/21 09:14:13;;;;;;;3.10;2.33;;;19.80;59.50;22.00;94503.00;;;;10468823;28;45237;-61
2022/07/21 09:19:38;;;;;;;3.35;2.42;;;19.90;59.40;22.10;94495.00;;;;10473247;28;45218;-61
2022/07/21 09:25:00;;;;;;;4.72;2.63;;;19.90;59.30;22.10;94499.00;;;;10473623;28;45329;-60
2022/07/21 09:30:21;;;;;;;4.15;2.30;;;19.90;59.40;22.10;94516.00;;;;10476762;28;45374;-60
2022/07/21 09:35:57;;;;;;;3.28;2.30;;;19.90;59.30;22.10;94509.00;;;;10478776;28;45216;-61
2022/07/21 09:41:21;;;;;;;4.40;2.37;;;20.00;59.20;22.10;94500.00;;;;10478306;28;45318;-63
2022/07/21 09:46:41;;;;;;;2.72;2.10;;;20.00;59.40;22.10;94498.00;;;;10478324;28;45228;-63
2022/07/21 09:52:03;;;;;;;2.67;2.08;;;20.00;59.10;22.10;94500.00;;;;10480137;28;45201;-63
2022/07/21 09:57:26;;;;;;;3.80;2.08;;;20.00;59.10;22.10;94498.00;;;;10479518;28;45210;-62
2022/07/21 10:02:47;;;;;;;3.80;2.60;;;20.00;59.10;22.10;94516.00;;;;10488269;28;45255;-63
2022/07/21 10:08:08;;;;;;;3.40;2.28;;;20.00;59.10;22.10;94514.00;;;;10495686;28;45243;-63
2022/07/21 10:13:30;;;;;;;3.42;2.35;;;20.00;59.00;22.10;94507.00;;;;10478524;28;45240;-63
2022/07/21 10:19:00;;;;;;;4.57;2.15;;;20.00;58.90;22.10;94488.00;;;;10478606;28;45282;-63
2022/07/21 10:24:21;;;;;;;3.00;2.13;;;20.00;58.90;22.10;94513.00;;;;10477924;28;45288;-63
2022/07/21 10:30:00;;;;;;;2.83;2.05;;;19.90;58.80;22.10;94488.00;;;;10478344;28;45239;-63
2022/07/21 10:35:29;;;;;;;4.10;1.90;;;19.90;58.70;22.10;94492.00;;;;10477900;28;45216;-63
2022/07/21 10:40:49;;;;;;;3.83;2.13;;;19.90;58.60;22.10;94488.00;;;;10478364;28;45308;-63
2022/07/21 10:46:40;;;;;;;2.55;2.00;;;19.90;58.50;22.10;94488.00;;;;10471852;28;45164;-63
2022/07/21 10:52:00;;;;;;;2.20;1.90;;;19.90;58.40;22.10;94497.00;;;;10477887;28;45264;-63
2022/07/21 10:57:30;;;;;;;2.85;2.08;;;19.90;58.30;22.10;94488.00;;;;10471776;28;45262;-63
2022/07/21 11:02:57;;;;;;;3.13;1.80;;;19.90;58.20;22.10;94478.00;;;;10476538;28;45185;-63
2022/07/21 11:08:21;;;;;;;2.30;1.60;;;19.90;58.20;22.10;94488.00;;;;10486397;28;45175;-62
2022/07/21 11:14:06;;;;;;;3.22;2.00;;;19.90;58.10;22.10;94485.00;;;;10476853;28;45260;-63
2022/07/21 11:19:37;;;;;;;2.78;1.70;;;19.90;58.20;22.10;94480.00;;;;10474851;28;45343;-63
2022/07/21 11:25:00;;;;;;;2.67;1.88;;;19.90;58.10;22.00;94460.00;;;;10463161;28;45167;-63
2022/07/21 11:30:21;;;;;;;2.78;1.60;;;19.90;58.10;22.00;94472.00;;;;10475784;28;45385;-63
2022/07/21 11:35:43;;;;;;;2.30;1.75;;;19.90;58.10;22.10;94451.00;;;;10475838;28;45196;-63
2022/07/21 11:41:18;;;;;;;2.33;1.70;;;19.90;58.10;22.00;94441.00;;;;10476204;28;45196;-63
2022/07/21 11:46:51;;;;;;;2.17;1.60;;;19.90;58.00;22.10;94447.00;;;;10469562;28;45209;-63
2022/07/21 11:52:17;;;;;;;2.53;1.70;;;19.90;58.70;22.10;94452.00;;;;10477332;28;45463;-63
2022/07/21 11:57:43;;;;;;;1.80;1.50;;;19.90;58.00;22.10;94429.00;;;;10474325;28;45471;-63
2022/07/21 12:03:07;;;;;;;3.05;2.00;;;19.90;58.00;22.10;94438.00;;;;10474718;28;45139;-63
2022/07/21 12:08:31;;;;;;;2.20;1.50;;;19.90;58.00;22.10;94439.00;;;;10470157;28;45268;-63
2022/07/21 12:13:57;;;;;;;2.30;1.80;;;19.90;57.90;22.10;94432.00;;;;10469796;28;45135;-62
2022/07/21 12:19:19;;;;;;;1.70;1.50;;;19.90;58.00;22.10;94429.00;;;;10468470;28;45247;-63
2022/07/21 12:24:55;;;;;;;2.28;1.70;;;19.90;57.90;22.10;94426.00;;;;10468466;28;45095;-63
2022/07/21 12:30:33;;;;;;;2.17;1.58;;;19.90;57.90;22.10;94427.00;;;;10468773;28;45211;-63
2022/07/21 12:36:01;;;;;;;2.65;1.50;;;19.90;57.90;22.10;94422.00;;;;10456937;28;45211;-62
2022/07/21 12:41:23;;;;;;;2.97;1.75;;;19.90;57.80;22.10;94420.00;;;;10468778;28;45310;-62
2022/07/21 12:46:44;;;;;;;2.42;1.60;;;19.90;57.80;22.10;94401.00;;;;10468207;28;45379;-62
2022/07/21 12:52:06;;;;;;;1.92;1.40;;;20.00;57.90;22.10;94408.00;;;;10461572;28;45250;-63
2022/07/21 12:57:30;;;;;;;3.40;1.80;;;20.00;57.80;22.10;94388.00;;;;10475312;28;45525;-63
2022/07/21 13:02:54;;;;;;;1.90;1.40;;;20.00;57.70;22.10;94401.00;;;;10474981;28;45208;-63
2022/07/21 13:08:15;;;;;;;2.47;1.55;;;20.00;57.70;22.20;94387.00;;;;10487443;28;45235;-63
2022/07/21 13:13:37;;;;;;;2.10;1.60;;;20.00;57.70;22.20;94402.00;;;;10475105;28;45180;-63
2022/07/21 13:18:58;;;;;;;2.17;1.38;;;20.00;57.60;22.20;94397.00;;;;10475086;28;45228;-62
2022/07/21 13:24:18;;;;;;;1.75;1.23;;;20.00;57.60;22.20;94376.00;;;;10480461;28;45201;-63
2022/07/21 13:29:40;;;;;;;1.88;1.40;;;20.10;57.60;22.20;94384.00;;;;10463969;28;45160;-63
2022/07/21 13:35:01;;;;;;;2.40;1.50;;;20.10;57.60;22.20;94388.00;;;;10473779;28;46015;-63
2022/07/21 13:40:23;;;;;;;2.25;1.60;;;20.10;57.50;22.20;94388.00;;;;10475133;28;45206;-62
2022/07/21 13:45:45;;;;;;;1.55;1.35;;;20.10;57.50;22.20;94379.00;;;;10473361;28;45684;-63
2022/07/21 13:51:06;;;;;;;2.10;1.60;;;20.10;57.50;22.20;94377.00;;;;10473614;28;45230;-63
2022/07/21 13:56:27;;;;;;;2.30;1.55;;;20.20;57.50;22.30;94374.00;;;;10472475;28;45231;-63
2022/07/21 14:01:48;;;;;;;1.63;1.40;;;20.10;57.30;22.30;94362.00;;;;10460380;28;45300;-63
2022/07/21 14:07:10;;;;;;;1.90;1.30;;;20.20;57.40;22.30;94375.00;;;;10480584;28;45397;-63
2022/07/21 14:12:31;;;;;;;1.98;1.40;;;20.20;57.30;22.30;94365.00;;;;10476968;28;45280;-63
2022/07/21 14:17:53;;;;;;;2.33;1.52;;;20.20;57.30;22.30;94373.00;;;;10480724;28;45267;-63
2022/07/21 14:23:13;;;;;;;2.28;1.50;;;20.20;57.20;22.40;94366.00;;;;10482602;28;45473;-63
2022/07/21 14:28:34;;;;;;;2.15;1.40;;;20.20;57.20;22.40;94370.00;;;;10488072;28;45228;-63
2022/07/21 14:33:56;;;;;;;2.22;1.30;;;20.30;57.00;22.50;94375.00;;;;10477106;28;45327;-64
2022/07/21 14:39:17;;;;;;;2.53;1.60;;;20.40;56.80;22.50;94366.00;;;;10472971;28;45065;-61
2022/07/21 14:44:39;;;;;;;1.75;1.20;;;20.40;56.80;22.60;94355.00;;;;10476637;28;45341;-60
2022/07/21 14:50:01;;;;;;;3.92;1.45;;;20.50;56.80;22.60;94363.00;;;;10477968;28;45431;-61
2022/07/21 14:55:24;;;;;;;1.77;1.20;;;20.50;56.70;22.60;94362.00;;;;10482351;28;45168;-62
2022/07/21 15:00:45;;;;;;;2.92;1.40;;;20.60;56.10;22.70;94356.00;;;;10471005;28;45216;-61
2022/07/21 15:06:07;;;;;;;2.83;1.60;;;20.60;55.40;22.70;94361.00;;;;10469220;28;45508;-62
2022/07/21 15:11:28;;;;;;;2.90;1.50;;;20.60;55.60;22.70;94356.00;;;;10469707;28;45359;-61
2022/07/21 15:16:49;;;;;;;3.45;1.20;;;20.60;55.60;22.80;94355.00;;;;10469738;28;45299;-62
2022/07/21 15:22:11;;;;;;;1.83;1.20;;;20.70;55.90;22.80;94353.00;;;;10470723;28;44616;-60
2022/07/21 15:27:31;;;;;;;1.40;1.10;;;20.70;55.60;22.80;94349.00;;;;10469149;28;45200;-61
2022/07/21 15:32:51;;;;;;;1.90;1.20;;;20.70;55.80;22.80;94335.00;;;;10457090;28;45369;-65
2022/07/21 15:38:13;;;;;;;1.42;1.23;;;20.80;55.80;22.90;94348.00;;;;10478496;28;45535;-60
2022/07/21 15:43:34;;;;;;;2.15;1.10;;;20.90;55.40;22.90;94334.00;;;;10472590;28;45230;-61
2022/07/21 15:48:54;;;;;;;3.45;1.45;;;20.90;55.90;22.90;94330.00;;;;10488647;28;45144;-61
2022/07/21 15:54:17;;;;;;;2.17;1.40;;;20.90;55.20;22.90;94327.00;;;;10469478;28;45427;-62
2022/07/21 15:59:37;;;;;;;2.33;1.10;;;20.90;55.20;23.00;94321.00;;;;10468920;28;45309;-61
2022/07/21 16:04:58;;;;;;;1.65;1.20;;;20.90;55.20;23.00;94330.00;;;;10468357;28;45277;-61
2022/07/21 16:10:22;;;;;;;2.00;1.10;;;20.90;55.10;23.00;94315.00;;;;10469223;28;45306;-62
2022/07/21 16:15:42;;;;;;;1.30;1.08;;;21.00;55.00;23.00;94314.00;;;;10468890;28;45211;-62
2022/07/21 16:21:04;;;;;;;2.20;1.30;;;21.00;54.80;23.10;94320.00;;;;10469620;28;45113;-62
2022/07/21 16:26:26;;;;;;;1.67;1.20;;;21.00;54.70;23.10;94321.00;;;;10475362;28;45792;-61
2022/07/21 16:31:47;;;;;;;2.28;1.20;;;21.00;54.70;23.10;94319.00;;;;10476308;28;45316;-62
2022/07/21 16:37:08;;;;;;;1.75;1.13;;;21.00;54.60;23.10;94314.00;;;;10474697;28;45233;-63
2022/07/21 16:42:30;;;;;;;2.75;1.20;;;21.10;54.50;23.20;94315.00;;;;10474115;28;45355;-63
2022/07/21 16:47:50;;;;;;;1.70;1.30;;;21.10;54.20;23.10;94310.00;;;;10488001;28;45237;-63
2022/07/21 16:53:11;;;;;;;1.75;1.08;;;21.00;54.30;23.10;94302.00;;;;10475559;28;45215;-61
2022/07/21 16:58:33;;;;;;;1.63;1.20;;;21.00;54.30;23.10;94303.00;;;;10474571;28;45259;-62
2022/07/21 17:03:54;;;;;;;1.88;1.23;;;21.00;54.50;23.10;94303.00;;;;10471169;28;45161;-62
2022/07/21 17:09:15;;;;;;;1.85;1.30;;;21.00;54.50;23.00;94315.00;;;;10473685;28;45139;-63
2022/07/21 17:14:36;;;;;;;1.65;1.40;;;21.00;54.50;23.00;94305.00;;;;10474040;28;45214;-60
2022/07/21 17:19:57;;;;;;;1.52;1.23;;;21.00;54.50;23.00;94317.00;;;;10475698;28;45240;-63
2022/07/21 17:25:18;;;;;;;2.22;1.38;;;20.90;54.50;23.00;94319.00;;;;10475469;28;45210;-63
2022/07/21 17:30:40;;;;;;;3.03;1.55;;;20.90;54.50;23.00;94311.00;;;;10475642;28;45269;-62
2022/07/21 17:36:01;;;;;;;1.98;1.20;;;20.90;54.50;23.00;94304.00;;;;10471239;28;45214;-62
2022/07/21 17:41:22;;;;;;;1.30;1.20;;;20.90;54.50;23.00;94307.00;;;;10477991;28;45216;-63
2022/07/21 17:46:44;;;;;;;1.50;1.17;;;20.90;54.50;23.00;94321.00;;;;10470954;28;45263;-63
2022/07/21 17:52:04;;;;;;;2.33;1.20;;;20.90;54.50;23.00;94320.00;;;;10474447;28;45152;-63
2022/07/21 18:03:05;;;;;;;2.95;1.10;;;20.90;54.80;23.00;94321.00;;;;10471195;28;45409;-62
2022/07/21 18:08:26;;;;;;;2.97;1.20;;;20.90;54.60;22.90;94322.00;;;;10457789;28;45556;-62
2022/07/21 18:13:47;;;;;;;2.00;1.10;;;20.80;54.70;22.90;94321.00;;;;10473520;28;45220;-62
2022/07/21 18:19:09;;;;;;;2.60;1.15;;;20.80;54.70;22.90;94325.00;;;;10474113;28;45447;-62
2022/07/21 18:24:29;;;;;;;1.20;1.10;;;20.70;54.70;22.90;94315.00;;;;10474057;28;45426;-63
2022/07/21 18:29:50;;;;;;;1.63;1.02;;;20.80;54.50;22.80;94310.00;;;;10474079;28;45172;-62
2022/07/21 18:35:12;;;;;;;2.13;1.10;;;20.70;54.60;22.80;94312.00;;;;10473605;28;45210;-63
2022/07/21 18:40:34;;;;;;;1.88;1.13;;;20.70;54.70;22.80;94330.00;;;;10473145;28;45449;-62
2022/07/21 18:45:55;;;;;;;1.17;1.02;;;20.60;54.80;22.70;94329.00;;;;10473061;28;45180;-62
2022/07/21 18:51:17;;;;;;;2.33;1.10;;;20.60;54.90;22.70;94322.00;;;;10475354;28;45156;-63
2022/07/21 18:56:37;;;;;;;1.55;1.05;;;20.60;55.00;22.70;94310.00;;;;10471727;28;45286;-62
2022/07/21 19:01:58;;;;;;;1.98;1.25;;;20.60;55.00;22.70;94321.00;;;;10468870;28;45348;-62
2022/07/21 19:07:20;;;;;;;1.55;1.10;;;20.50;55.00;22.70;94314.00;;;;10472714;28;45285;-62
2022/07/21 19:12:41;;;;;;;2.03;1.40;;;20.50;55.10;22.70;94322.00;;;;10471311;28;45551;-63
2022/07/21 19:18:02;;;;;;;1.90;1.05;;;20.50;55.00;22.60;94319.00;;;;10470830;28;45151;-61
2022/07/21 19:23:24;;;;;;;1.70;1.17;;;20.50;54.80;22.60;94325.00;;;;10472625;28;45246;-63
2022/07/21 19:28:47;;;;;;;1.58;1.10;;;20.50;54.60;22.60;94322.00;;;;10490319;28;45148;-62
2022/07/21 19:34:07;;;;;;;1.67;1.20;;;20.40;54.40;22.60;94322.00;;;;10472094;28;45223;-62
2022/07/21 19:39:29;;;;;;;1.10;1.00;;;20.40;54.40;22.50;94325.00;;;;10471561;28;45263;-63
2022/07/21 19:44:50;;;;;;;1.90;1.10;;;20.30;54.70;22.50;94335.00;;;;10473761;28;45405;-62
2022/07/21 19:50:12;;;;;;;2.00;1.30;;;20.30;54.70;22.50;94323.00;;;;10476980;28;45276;-63
2022/07/21 19:55:34;;;;;;;1.33;1.10;;;20.30;54.60;22.50;94325.00;;;;10458746;28;45282;-63
2022/07/21 20:00:54;;;;;;;1.48;1.08;;;20.30;54.80;22.50;94339.00;;;;10471052;28;45207;-60
2022/07/21 20:06:15;;;;;;;1.75;1.30;;;20.30;54.50;22.50;94343.00;;;;10484041;28;45443;-63
2022/07/21 20:11:37;;;;;;;1.80;1.30;;;20.30;54.50;22.40;94334.00;;;;10470916;28;45260;-63
2022/07/21 20:16:58;;;;;;;2.47;1.30;;;20.30;54.60;22.40;94339.00;;;;10470507;28;45214;-63
2022/07/21 20:22:18;;;;;;;1.52;1.20;;;20.30;54.50;22.40;94332.00;;;;10471035;28;45395;-62
2022/07/21 20:27:43;;;;;;;1.55;1.20;;;20.20;54.40;22.40;94328.00;;;;10486336;28;45495;-62
2022/07/21 20:33:04;;;;;;;2.15;1.40;;;20.30;54.50;22.40;94337.00;;;;10470552;28;45258;-61
2022/07/21 20:38:25;;;;;;;1.60;1.30;;;20.20;54.50;22.40;94336.00;;;;10469752;28;45399;-62
2022/07/21 20:43:47;;;;;;;1.40;1.05;;;20.20;54.50;22.30;94325.00;;;;10470020;28;45576;-63
2022/07/21 20:49:08;;;;;;;1.75;1.30;;;20.20;54.50;22.30;94335.00;;;;10470787;28;45258;-62
2022/07/21 20:54:28;;;;;;;1.95;1.40;;;20.20;54.60;22.30;94338.00;;;;10470146;28;45273;-63
2022/07/21 20:59:50;;;;;;;1.77;1.25;;;20.20;54.50;22.30;94331.00;;;;10470043;28;45203;-61
2022/07/21 21:05:11;;;;;;;1.35;1.02;;;20.20;54.50;22.30;94339.00;;;;10469163;28;45450;-62
2022/07/21 21:10:32;;;;;;;1.70;1.27;;;20.20;54.50;22.30;94332.00;;;;10473747;28;45179;-63
2022/07/21 21:15:53;;;;;;;1.33;1.10;;;20.20;54.40;22.30;94333.00;;;;10476418;28;45298;-63
2022/07/21 21:21:14;;;;;;;1.50;1.23;;;20.10;54.40;22.30;94336.00;;;;10476896;28;45153;-62
2022/07/21 21:26:34;;;;;;;1.85;1.33;;;20.20;54.40;22.30;94333.00;;;;10492744;28;45230;-62
2022/07/21 21:31:56;;;;;;;1.38;1.20;;;20.10;54.40;22.30;94340.00;;;;10476882;28;45173;-62
2022/07/21 21:37:18;;;;;;;1.92;1.10;;;20.10;54.40;22.30;94334.00;;;;10474796;28;45520;-62
2022/07/21 21:42:38;;;;;;;1.75;1.10;;;20.10;54.60;22.30;94334.00;;;;10465874;28;45300;-60
2022/07/21 21:48:00;;;;;;;2.20;1.55;;;20.10;54.60;22.30;94333.00;;;;10475165;28;45431;-62
2022/07/21 21:53:20;;;;;;;2.20;1.50;;;20.00;54.40;22.20;94325.00;;;;10475277;28;45388;-63
2022/07/21 21:58:42;;;;;;;1.40;1.08;;;20.00;54.40;22.20;94326.00;;;;10474232;28;45142;-62
2022/07/21 22:04:05;;;;;;;1.98;1.35;;;20.10;54.50;22.20;94329.00;;;;10488434;28;45157;-62
2022/07/21 22:09:25;;;;;;;2.03;1.40;;;20.00;54.50;22.20;94316.00;;;;10475197;28;45222;-62
2022/07/21 22:14:46;;;;;;;2.53;1.27;;;20.00;54.50;22.20;94325.00;;;;10474616;28;45287;-62
2022/07/21 22:20:10;;;;;;;1.85;1.17;;;20.00;54.50;22.20;94323.00;;;;10474385;28;45159;-63
2022/07/21 22:25:30;;;;;;;2.35;1.50;;;20.00;54.50;22.20;94321.00;;;;10474246;28;45602;-63
2022/07/21 22:30:51;;;;;;;1.80;1.38;;;20.00;54.60;22.20;94323.00;;;;10474181;28;45195;-63
2022/07/21 22:36:13;;;;;;;2.95;1.50;;;20.00;54.70;22.20;94322.00;;;;10473912;28;45410;-63
2022/07/21 22:41:33;;;;;;;1.23;1.10;;;20.00;54.50;22.20;94324.00;;;;10473061;28;45266;-62
2022/07/21 22:46:54;;;;;;;1.90;1.27;;;20.00;54.60;22.20;94312.00;;;;10473037;28;45353;-62
2022/07/21 22:52:16;;;;;;;1.60;1.40;;;20.00;54.60;22.20;94326.00;;;;10472008;28;45427;-62
2022/07/21 22:57:36;;;;;;;1.50;1.23;;;20.00;54.50;22.20;94321.00;;;;10472347;28;46048;-63
2022/07/21 23:02:57;;;;;;;2.00;1.35;;;20.00;54.60;22.20;94315.00;;;;10486690;28;45258;-62
2022/07/21 23:08:20;;;;;;;1.45;1.30;;;20.00;54.70;22.20;94306.00;;;;10458403;28;45153;-63
2022/07/21 23:13:40;;;;;;;1.63;1.17;;;20.00;54.70;22.10;94310.00;;;;10472788;28;45567;-62
2022/07/21 23:19:01;;;;;;;1.92;1.30;;;19.90;54.50;22.10;94297.00;;;;10473366;28;45224;-63
2022/07/21 23:24:22;;;;;;;2.05;1.50;;;20.00;54.60;22.10;94302.00;;;;10471943;28;45495;-62
2022/07/21 23:29:43;;;;;;;1.65;1.40;;;20.00;54.60;22.10;94303.00;;;;10472202;28;45176;-62
2022/07/21 23:35:05;;;;;;;2.90;1.63;;;20.00;55.30;22.10;94308.00;;;;10471109;28;45160;-63
2022/07/21 23:40:27;;;;;;;2.47;1.50;;;19.90;54.50;22.10;94293.00;;;;10475224;28;45330;-63
2022/07/21 23:45:47;;;;;;;1.98;1.40;;;20.00;54.50;22.10;94292.00;;;;10478780;28;45274;-63